sensor_id;sensor_type;location;lat;lon;timestamp;pressure;altitude;pressure_sealevel;temperature;humidity
62978;BME280;49073;42.352;23.808;2024-01-30T00:00:49;96552.28;;;-3.00;75.77
62978;BME280;49073;42.352;23.808;2024-01-30T00:03:49;96561.69;;;-2.99;76.27
62978;BME280;49073;42.352;23.808;2024-01-30T00:06:51;96561.41;;;-3.10;76.93
62978;BME280;49073;42.352;23.808;2024-01-30T00:09:53;96555.03;;;-3.14;76.40
62978;BME280;49073;42.352;23.808;2024-01-30T00:12:53;96551.88;;;-3.16;77.87
62978;BME280;49073;42.352;23.808;2024-01-30T00:15:55;96555.28;;;-3.15;78.22
62978;BME280;49073;42.352;23.808;2024-01-30T00:18:55;96560.53;;;-3.03;77.78
62978;BME280;49073;42.352;23.808;2024-01-30T00:21:56;96554.59;;;-2.92;77.43
62978;BME280;49073;42.352;23.808;2024-01-30T00:24:57;96557.94;;;-2.85;77.06
62978;BME280;49073;42.352;23.808;2024-01-30T00:27:57;96556.94;;;-2.72;76.84
62978;BME280;49073;42.352;23.808;2024-01-30T00:30:58;96550.19;;;-2.61;76.35
62978;BME280;49073;42.352;23.808;2024-01-30T00:33:58;96553.94;;;-2.57;75.86
62978;BME280;49073;42.352;23.808;2024-01-30T00:36:59;96553.25;;;-2.64;75.83
62978;BME280;49073;42.352;23.808;2024-01-30T00:39:59;96552.13;;;-2.87;75.24
62978;BME280;49073;42.352;23.808;2024-01-30T00:43:00;96558.44;;;-2.95;75.57
62978;BME280;49073;42.352;23.808;2024-01-30T00:46:00;96557.06;;;-2.97;75.46
62978;BME280;49073;42.352;23.808;2024-01-30T00:49:01;96547.38;;;-3.09;75.51
62978;BME280;49073;42.352;23.808;2024-01-30T00:52:04;96555.47;;;-3.17;75.65
62978;BME280;49073;42.352;23.808;2024-01-30T00:55:05;96556.94;;;-3.21;75.93
62978;BME280;49073;42.352;23.808;2024-01-30T00:58:06;96553.66;;;-3.35;75.75
62978;BME280;49073;42.352;23.808;2024-01-30T01:01:06;96542.81;;;-3.32;76.87
62978;BME280;49073;42.352;23.808;2024-01-30T01:04:07;96536.50;;;-3.24;76.98
62978;BME280;49073;42.352;23.808;2024-01-30T01:07:08;96540.22;;;-3.13;76.82
62978;BME280;49073;42.352;23.808;2024-01-30T01:10:09;96541.56;;;-2.92;76.43
62978;BME280;49073;42.352;23.808;2024-01-30T01:13:11;96539.09;;;-2.87;76.32
62978;BME280;49073;42.352;23.808;2024-01-30T01:16:12;96538.78;;;-2.97;75.35
62978;BME280;49073;42.352;23.808;2024-01-30T01:19:13;96534.47;;;-3.03;75.96
62978;BME280;49073;42.352;23.808;2024-01-30T01:22:13;96532.34;;;-2.95;75.92
62978;BME280;49073;42.352;23.808;2024-01-30T01:25:14;96534.22;;;-2.83;75.76
62978;BME280;49073;42.352;23.808;2024-01-30T01:28:15;96542.75;;;-2.76;75.49
62978;BME280;49073;42.352;23.808;2024-01-30T01:31:16;96547.63;;;-2.98;75.91
62978;BME280;49073;42.352;23.808;2024-01-30T01:34:18;96551.00;;;-3.28;77.44
62978;BME280;49073;42.352;23.808;2024-01-30T01:37:19;96545.84;;;-3.35;78.50
62978;BME280;49073;42.352;23.808;2024-01-30T01:40:23;96545.06;;;-3.36;78.10
62978;BME280;49073;42.352;23.808;2024-01-30T01:43:23;96553.59;;;-3.28;77.99
62978;BME280;49073;42.352;23.808;2024-01-30T01:46:27;96545.50;;;-3.20;78.17
62978;BME280;49073;42.352;23.808;2024-01-30T01:49:28;96551.56;;;-3.08;77.56
62978;BME280;49073;42.352;23.808;2024-01-30T01:52:29;96558.31;;;-3.18;76.34
62978;BME280;49073;42.352;23.808;2024-01-30T01:55:30;96562.16;;;-3.40;78.05
62978;BME280;49073;42.352;23.808;2024-01-30T01:58:31;96560.38;;;-3.65;77.93
62978;BME280;49073;42.352;23.808;2024-01-30T02:01:32;96567.03;;;-3.69;78.09
62978;BME280;49073;42.352;23.808;2024-01-30T02:04:33;96566.38;;;-3.83;77.77
62978;BME280;49073;42.352;23.808;2024-01-30T02:07:34;96566.53;;;-3.77;77.48
62978;BME280;49073;42.352;23.808;2024-01-30T02:10:34;96561.94;;;-3.82;78.25
62978;BME280;49073;42.352;23.808;2024-01-30T02:13:35;96563.22;;;-3.91;77.71
62978;BME280;49073;42.352;23.808;2024-01-30T02:16:36;96569.03;;;-3.89;78.58
62978;BME280;49073;42.352;23.808;2024-01-30T02:19:38;96566.69;;;-3.98;78.35
62978;BME280;49073;42.352;23.808;2024-01-30T02:22:40;96564.00;;;-4.16;79.53
62978;BME280;49073;42.352;23.808;2024-01-30T02:25:42;96563.41;;;-4.18;79.75
62978;BME280;49073;42.352;23.808;2024-01-30T02:28:46;96560.75;;;-4.05;79.78
62978;BME280;49073;42.352;23.808;2024-01-30T02:31:46;96559.88;;;-3.99;79.50
62978;BME280;49073;42.352;23.808;2024-01-30T02:34:47;96557.06;;;-3.97;78.89
62978;BME280;49073;42.352;23.808;2024-01-30T02:37:47;96560.03;;;-4.19;79.31
62978;BME280;49073;42.352;23.808;2024-01-30T02:40:48;96562.22;;;-4.16;79.64
62978;BME280;49073;42.352;23.808;2024-01-30T02:43:50;96557.91;;;-4.03;79.06
62978;BME280;49073;42.352;23.808;2024-01-30T02:46:50;96559.47;;;-3.96;78.79
62978;BME280;49073;42.352;23.808;2024-01-30T02:49:51;96560.81;;;-3.93;78.29
62978;BME280;49073;42.352;23.808;2024-01-30T02:52:51;96563.00;;;-3.90;77.64
62978;BME280;49073;42.352;23.808;2024-01-30T02:55:52;96564.09;;;-3.98;76.96
62978;BME280;49073;42.352;23.808;2024-01-30T02:58:52;96567.28;;;-4.28;77.77
62978;BME280;49073;42.352;23.808;2024-01-30T03:01:53;96564.34;;;-4.31;77.73
62978;BME280;49073;42.352;23.808;2024-01-30T03:04:53;96566.22;;;-4.45;79.29
62978;BME280;49073;42.352;23.808;2024-01-30T03:07:54;96556.97;;;-4.41;79.08
62978;BME280;49073;42.352;23.808;2024-01-30T03:10:54;96548.38;;;-4.42;78.56
62978;BME280;49073;42.352;23.808;2024-01-30T03:13:55;96550.91;;;-4.28;79.64
62978;BME280;49073;42.352;23.808;2024-01-30T03:16:56;96551.84;;;-4.22;78.92
62978;BME280;49073;42.352;23.808;2024-01-30T03:19:57;96554.22;;;-4.46;79.12
62978;BME280;49073;42.352;23.808;2024-01-30T03:22:59;96567.00;;;-4.45;79.01
62978;BME280;49073;42.352;23.808;2024-01-30T03:26:00;96561.75;;;-4.38;79.53
62978;BME280;49073;42.352;23.808;2024-01-30T03:29:01;96563.41;;;-4.18;78.13
62978;BME280;49073;42.352;23.808;2024-01-30T03:32:02;96560.78;;;-4.44;78.32
62978;BME280;49073;42.352;23.808;2024-01-30T03:35:04;96562.22;;;-4.48;80.06
62978;BME280;49073;42.352;23.808;2024-01-30T03:38:05;96560.31;;;-4.27;80.03
62978;BME280;49073;42.352;23.808;2024-01-30T03:41:07;96557.53;;;-4.32;81.88
62978;BME280;49073;42.352;23.808;2024-01-30T03:44:08;96558.00;;;-4.42;82.69
62978;BME280;49073;42.352;23.808;2024-01-30T03:47:09;96556.09;;;-4.28;82.63
62978;BME280;49073;42.352;23.808;2024-01-30T03:50:09;96558.47;;;-4.27;83.23
62978;BME280;49073;42.352;23.808;2024-01-30T03:53:10;96554.81;;;-4.19;83.25
62978;BME280;49073;42.352;23.808;2024-01-30T03:56:10;96555.88;;;-4.01;82.86
62978;BME280;49073;42.352;23.808;2024-01-30T03:59:11;96550.75;;;-3.83;82.91
62978;BME280;49073;42.352;23.808;2024-01-30T04:02:12;96551.94;;;-3.60;82.63
62978;BME280;49073;42.352;23.808;2024-01-30T04:05:14;96551.44;;;-3.50;81.17
62978;BME280;49073;42.352;23.808;2024-01-30T04:08:14;96549.69;;;-3.38;80.69
62978;BME280;49073;42.352;23.808;2024-01-30T04:11:15;96551.00;;;-3.28;80.44
62978;BME280;49073;42.352;23.808;2024-01-30T04:14:18;96549.50;;;-3.17;80.34
62978;BME280;49073;42.352;23.808;2024-01-30T04:17:18;96554.41;;;-3.09;80.63
62978;BME280;49073;42.352;23.808;2024-01-30T04:20:19;96561.84;;;-3.13;80.12
62978;BME280;49073;42.352;23.808;2024-01-30T04:23:19;96557.72;;;-3.02;79.88
62978;BME280;49073;42.352;23.808;2024-01-30T04:26:20;96568.81;;;-3.07;80.18
62978;BME280;49073;42.352;23.808;2024-01-30T04:29:21;96561.63;;;-2.93;80.23
62978;BME280;49073;42.352;23.808;2024-01-30T04:32:22;96563.59;;;-3.07;80.25
62978;BME280;49073;42.352;23.808;2024-01-30T04:35:23;96566.00;;;-3.05;80.19
62978;BME280;49073;42.352;23.808;2024-01-30T04:38:25;96559.69;;;-3.16;79.70
62978;BME280;49073;42.352;23.808;2024-01-30T04:41:25;96556.44;;;-3.11;79.56
62978;BME280;49073;42.352;23.808;2024-01-30T04:44:26;96564.31;;;-3.18;78.88
62978;BME280;49073;42.352;23.808;2024-01-30T04:47:26;96567.38;;;-3.40;78.63
62978;BME280;49073;42.352;23.808;2024-01-30T04:50:27;96566.31;;;-3.57;79.82
62978;BME280;49073;42.352;23.808;2024-01-30T04:56:22;96579.97;;;-3.81;79.95
62978;BME280;49073;42.352;23.808;2024-01-30T05:02:19;96574.38;;;-3.84;79.54
62978;BME280;49073;42.352;23.808;2024-01-30T05:05:19;96572.94;;;-3.80;78.94
62978;BME280;49073;42.352;23.808;2024-01-30T05:11:16;96579.13;;;-4.00;77.71
62978;BME280;49073;42.352;23.808;2024-01-30T05:14:17;96580.44;;;-4.16;77.95
62978;BME280;49073;42.352;23.808;2024-01-30T05:17:18;96581.00;;;-4.39;77.86
62978;BME280;49073;42.352;23.808;2024-01-30T05:20:19;96580.25;;;-4.53;79.76
62978;BME280;49073;42.352;23.808;2024-01-30T05:23:20;96579.47;;;-4.54;79.26
62978;BME280;49073;42.352;23.808;2024-01-30T05:26:20;96579.91;;;-4.57;79.45
62978;BME280;49073;42.352;23.808;2024-01-30T05:29:24;96584.50;;;-4.59;80.34
62978;BME280;49073;42.352;23.808;2024-01-30T05:32:24;96587.13;;;-4.59;80.70
62978;BME280;49073;42.352;23.808;2024-01-30T05:35:25;96594.91;;;-4.59;79.56
62978;BME280;49073;42.352;23.808;2024-01-30T05:38:25;96588.56;;;-4.70;79.75
62978;BME280;49073;42.352;23.808;2024-01-30T05:41:26;96588.63;;;-4.83;79.32
62978;BME280;49073;42.352;23.808;2024-01-30T05:44:26;96589.28;;;-5.01;78.96
62978;BME280;49073;42.352;23.808;2024-01-30T05:47:27;96594.88;;;-4.98;79.33
62978;BME280;49073;42.352;23.808;2024-01-30T05:50:28;96601.09;;;-4.99;80.41
62978;BME280;49073;42.352;23.808;2024-01-30T05:53:28;96597.09;;;-4.94;80.30
62978;BME280;49073;42.352;23.808;2024-01-30T05:56:29;96591.72;;;-5.06;80.64
62978;BME280;49073;42.352;23.808;2024-01-30T05:59:30;96597.63;;;-4.86;81.77
62978;BME280;49073;42.352;23.808;2024-01-30T06:02:31;96597.09;;;-4.94;80.99
62978;BME280;49073;42.352;23.808;2024-01-30T06:05:31;96597.03;;;-4.88;81.03
62978;BME280;49073;42.352;23.808;2024-01-30T06:08:32;96603.38;;;-4.70;81.65
62978;BME280;49073;42.352;23.808;2024-01-30T06:11:32;96603.19;;;-4.75;82.22
62978;BME280;49073;42.352;23.808;2024-01-30T06:14:33;96603.34;;;-4.63;82.56
62978;BME280;49073;42.352;23.808;2024-01-30T06:17:34;96593.50;;;-4.55;83.42
62978;BME280;49073;42.352;23.808;2024-01-30T06:20:34;96597.94;;;-4.30;83.09
62978;BME280;49073;42.352;23.808;2024-01-30T06:23:35;96592.84;;;-4.11;83.48
62978;BME280;49073;42.352;23.808;2024-01-30T06:26:36;96592.75;;;-4.04;82.81
62978;BME280;49073;42.352;23.808;2024-01-30T06:29:36;96602.34;;;-3.73;81.67
62978;BME280;49073;42.352;23.808;2024-01-30T06:32:37;96594.66;;;-3.42;79.19
62978;BME280;49073;42.352;23.808;2024-01-30T06:35:37;96612.13;;;-3.24;77.77
62978;BME280;49073;42.352;23.808;2024-01-30T06:38:41;96611.09;;;-3.04;76.13
62978;BME280;49073;42.352;23.808;2024-01-30T06:41:41;96601.31;;;-2.90;75.14
62978;BME280;49073;42.352;23.808;2024-01-30T06:44:42;96611.59;;;-2.77;74.10
62978;BME280;49073;42.352;23.808;2024-01-30T06:47:43;96608.84;;;-2.64;74.05
62978;BME280;49073;42.352;23.808;2024-01-30T06:50:43;96602.56;;;-2.44;73.57
62978;BME280;49073;42.352;23.808;2024-01-30T06:53:44;96607.28;;;-2.53;75.79
62978;BME280;49073;42.352;23.808;2024-01-30T06:56:45;96611.22;;;-2.62;76.14
62978;BME280;49073;42.352;23.808;2024-01-30T06:59:45;96608.53;;;-2.55;76.67
62978;BME280;49073;42.352;23.808;2024-01-30T07:02:45;96615.38;;;-2.42;75.96
62978;BME280;49073;42.352;23.808;2024-01-30T07:05:46;96623.06;;;-2.29;75.98
62978;BME280;49073;42.352;23.808;2024-01-30T07:08:47;96620.81;;;-2.13;75.92
62978;BME280;49073;42.352;23.808;2024-01-30T07:11:47;96616.88;;;-2.04;75.58
62978;BME280;49073;42.352;23.808;2024-01-30T07:14:48;96618.03;;;-1.88;74.27
62978;BME280;49073;42.352;23.808;2024-01-30T07:17:48;96607.38;;;-1.74;73.41
62978;BME280;49073;42.352;23.808;2024-01-30T07:20:49;96603.19;;;-1.64;69.98
62978;BME280;49073;42.352;23.808;2024-01-30T07:23:50;96604.56;;;-1.49;69.21
62978;BME280;49073;42.352;23.808;2024-01-30T07:26:50;96605.69;;;-1.45;66.64
62978;BME280;49073;42.352;23.808;2024-01-30T07:29:51;96601.94;;;-1.37;66.66
62978;BME280;49073;42.352;23.808;2024-01-30T07:32:52;96605.69;;;-1.33;66.20
62978;BME280;49073;42.352;23.808;2024-01-30T07:35:53;96592.94;;;-1.18;65.13
62978;BME280;49073;42.352;23.808;2024-01-30T07:38:53;96593.03;;;-1.12;65.08
62978;BME280;49073;42.352;23.808;2024-01-30T07:41:55;96598.81;;;-0.98;64.10
62978;BME280;49073;42.352;23.808;2024-01-30T07:44:56;96604.06;;;-0.98;62.76
62978;BME280;49073;42.352;23.808;2024-01-30T07:47:56;96605.19;;;-0.94;62.50
62978;BME280;49073;42.352;23.808;2024-01-30T07:50:57;96606.50;;;-0.80;63.46
62978;BME280;49073;42.352;23.808;2024-01-30T07:53:57;96601.66;;;-0.59;62.78
62978;BME280;49073;42.352;23.808;2024-01-30T07:57:00;96596.16;;;-0.46;61.91
62978;BME280;49073;42.352;23.808;2024-01-30T08:00:01;96596.81;;;-0.38;61.58
62978;BME280;49073;42.352;23.808;2024-01-30T08:03:04;96598.50;;;-0.32;60.90
62978;BME280;49073;42.352;23.808;2024-01-30T08:06:04;96601.25;;;-0.39;59.82
62978;BME280;49073;42.352;23.808;2024-01-30T08:09:05;96599.00;;;-0.18;60.60
62978;BME280;49073;42.352;23.808;2024-01-30T08:12:06;96594.19;;;0.08;59.46
62978;BME280;49073;42.352;23.808;2024-01-30T08:15:07;96594.97;;;0.08;57.51
62978;BME280;49073;42.352;23.808;2024-01-30T08:18:08;96595.13;;;0.19;56.52
62978;BME280;49073;42.352;23.808;2024-01-30T08:21:09;96591.16;;;0.33;57.49
62978;BME280;49073;42.352;23.808;2024-01-30T08:24:09;96600.69;;;0.39;55.84
62978;BME280;49073;42.352;23.808;2024-01-30T08:27:10;96601.09;;;0.14;56.04
62978;BME280;49073;42.352;23.808;2024-01-30T08:30:12;96596.88;;;0.30;55.07
62978;BME280;49073;42.352;23.808;2024-01-30T08:33:13;96593.59;;;0.57;55.67
62978;BME280;49073;42.352;23.808;2024-01-30T08:36:13;96594.47;;;0.63;54.94
62978;BME280;49073;42.352;23.808;2024-01-30T08:39:14;96595.47;;;0.79;53.58
62978;BME280;49073;42.352;23.808;2024-01-30T08:42:14;96598.19;;;1.06;52.57
62978;BME280;49073;42.352;23.808;2024-01-30T08:45:16;96594.16;;;1.21;52.64
62978;BME280;49073;42.352;23.808;2024-01-30T08:48:17;96598.06;;;1.18;52.09
62978;BME280;49073;42.352;23.808;2024-01-30T08:51:18;96591.03;;;1.46;52.06
62978;BME280;49073;42.352;23.808;2024-01-30T08:54:18;96594.22;;;1.76;52.04
62978;BME280;49073;42.352;23.808;2024-01-30T08:57:19;96590.41;;;1.88;51.42
62978;BME280;49073;42.352;23.808;2024-01-30T09:00:20;96594.38;;;1.41;51.47
62978;BME280;49073;42.352;23.808;2024-01-30T09:03:20;96590.22;;;1.73;51.78
62978;BME280;49073;42.352;23.808;2024-01-30T09:06:21;96591.59;;;2.08;51.91
62978;BME280;49073;42.352;23.808;2024-01-30T09:09:22;96598.81;;;2.56;51.25
62978;BME280;49073;42.352;23.808;2024-01-30T09:12:22;96592.56;;;2.67;50.60
62978;BME280;49073;42.352;23.808;2024-01-30T09:15:23;96588.97;;;2.89;49.55
62978;BME280;49073;42.352;23.808;2024-01-30T09:18:23;96596.69;;;2.53;48.96
62978;BME280;49073;42.352;23.808;2024-01-30T09:21:24;96582.25;;;2.23;49.79
62978;BME280;49073;42.352;23.808;2024-01-30T09:24:25;96582.97;;;2.51;49.34
62978;BME280;49073;42.352;23.808;2024-01-30T09:27:26;96582.75;;;2.57;49.08
62978;BME280;49073;42.352;23.808;2024-01-30T09:30:26;96581.63;;;2.10;50.34
62978;BME280;49073;42.352;23.808;2024-01-30T09:33:27;96581.50;;;1.95;50.30
62978;BME280;49073;42.352;23.808;2024-01-30T09:36:27;96574.03;;;1.81;52.55
62978;BME280;49073;42.352;23.808;2024-01-30T09:39:28;96576.25;;;1.67;52.68
62978;BME280;49073;42.352;23.808;2024-01-30T09:42:35;96563.44;;;1.76;52.23
62978;BME280;49073;42.352;23.808;2024-01-30T09:45:40;96569.78;;;2.08;51.06
62978;BME280;49073;42.352;23.808;2024-01-30T09:48:43;96552.69;;;2.48;50.60
62978;BME280;49073;42.352;23.808;2024-01-30T09:51:44;96554.13;;;2.66;49.83
62978;BME280;49073;42.352;23.808;2024-01-30T09:54:47;96555.91;;;3.09;49.21
62978;BME280;49073;42.352;23.808;2024-01-30T09:57:49;96551.72;;;3.18;49.33
62978;BME280;49073;42.352;23.808;2024-01-30T10:00:50;96549.25;;;2.96;48.06
62978;BME280;49073;42.352;23.808;2024-01-30T10:03:51;96545.28;;;2.93;48.72
62978;BME280;49073;42.352;23.808;2024-01-30T10:06:52;96536.22;;;3.27;47.52
62978;BME280;49073;42.352;23.808;2024-01-30T10:09:53;96526.63;;;3.00;48.06
62978;BME280;49073;42.352;23.808;2024-01-30T10:12:56;96524.13;;;3.41;48.45
62978;BME280;49073;42.352;23.808;2024-01-30T10:15:57;96536.75;;;3.44;46.65
62978;BME280;49073;42.352;23.808;2024-01-30T10:18:58;96527.53;;;3.47;46.95
62978;BME280;49073;42.352;23.808;2024-01-30T10:22:00;96522.00;;;3.48;46.23
62978;BME280;49073;42.352;23.808;2024-01-30T10:25:00;96506.97;;;3.44;46.77
62978;BME280;49073;42.352;23.808;2024-01-30T10:28:01;96506.72;;;3.51;47.34
62978;BME280;49073;42.352;23.808;2024-01-30T10:31:02;96506.75;;;3.76;45.48
62978;BME280;49073;42.352;23.808;2024-01-30T10:34:05;96501.47;;;3.76;45.36
62978;BME280;49073;42.352;23.808;2024-01-30T10:37:10;96510.44;;;3.75;45.96
62978;BME280;49073;42.352;23.808;2024-01-30T10:40:16;96503.84;;;3.83;45.91
62978;BME280;49073;42.352;23.808;2024-01-30T10:43:21;96510.69;;;4.00;44.98
62978;BME280;49073;42.352;23.808;2024-01-30T10:46:27;96508.56;;;4.12;45.07
62978;BME280;49073;42.352;23.808;2024-01-30T10:49:30;96502.53;;;3.91;45.68
62978;BME280;49073;42.352;23.808;2024-01-30T10:52:32;96497.28;;;3.91;45.31
62978;BME280;49073;42.352;23.808;2024-01-30T10:55:33;96493.81;;;3.96;44.70
62978;BME280;49073;42.352;23.808;2024-01-30T10:58:35;96491.19;;;3.80;45.55
62978;BME280;49073;42.352;23.808;2024-01-30T11:01:35;96497.47;;;4.41;44.08
62978;BME280;49073;42.352;23.808;2024-01-30T11:04:43;96484.56;;;4.24;44.43
62978;BME280;49073;42.352;23.808;2024-01-30T11:07:44;96492.22;;;4.05;45.23
62978;BME280;49073;42.352;23.808;2024-01-30T11:10:48;96494.34;;;3.82;46.42
62978;BME280;49073;42.352;23.808;2024-01-30T11:13:49;96495.13;;;4.08;45.98
62978;BME280;49073;42.352;23.808;2024-01-30T11:16:50;96493.56;;;4.07;45.06
62978;BME280;49073;42.352;23.808;2024-01-30T11:19:51;96482.19;;;3.45;46.18
62978;BME280;49073;42.352;23.808;2024-01-30T11:22:53;96478.88;;;2.81;47.74
62978;BME280;49073;42.352;23.808;2024-01-30T11:25:55;96476.44;;;2.58;49.64
62978;BME280;49073;42.352;23.808;2024-01-30T11:28:56;96487.66;;;3.12;48.84
62978;BME280;49073;42.352;23.808;2024-01-30T11:31:58;96469.81;;;3.45;47.29
62978;BME280;49073;42.352;23.808;2024-01-30T11:34:59;96464.81;;;3.44;47.64
62978;BME280;49073;42.352;23.808;2024-01-30T11:38:00;96469.59;;;3.62;47.28
62978;BME280;49073;42.352;23.808;2024-01-30T11:41:01;96464.31;;;3.73;46.37
62978;BME280;49073;42.352;23.808;2024-01-30T11:44:03;96464.25;;;4.04;47.71
62978;BME280;49073;42.352;23.808;2024-01-30T11:47:04;96460.06;;;4.13;46.28
62978;BME280;49073;42.352;23.808;2024-01-30T11:50:04;96452.38;;;4.17;46.64
62978;BME280;49073;42.352;23.808;2024-01-30T11:53:07;96460.56;;;4.26;46.20
62978;BME280;49073;42.352;23.808;2024-01-30T11:56:08;96447.84;;;4.33;46.21
62978;BME280;49073;42.352;23.808;2024-01-30T11:59:08;96445.50;;;4.21;45.98
62978;BME280;49073;42.352;23.808;2024-01-30T12:02:15;96438.94;;;4.03;46.66
62978;BME280;49073;42.352;23.808;2024-01-30T12:05:18;96441.88;;;3.44;47.45
62978;BME280;49073;42.352;23.808;2024-01-30T12:08:19;96436.25;;;2.89;48.00
62978;BME280;49073;42.352;23.808;2024-01-30T12:11:19;96440.47;;;2.85;48.29
62978;BME280;49073;42.352;23.808;2024-01-30T12:14:20;96437.91;;;3.11;48.12
62978;BME280;49073;42.352;23.808;2024-01-30T12:17:27;96423.44;;;3.49;47.33
62978;BME280;49073;42.352;23.808;2024-01-30T12:20:27;96414.47;;;3.87;46.62
62978;BME280;49073;42.352;23.808;2024-01-30T12:23:28;96414.19;;;3.78;46.88
62978;BME280;49073;42.352;23.808;2024-01-30T12:26:29;96428.72;;;3.55;47.92
62978;BME280;49073;42.352;23.808;2024-01-30T12:29:33;96411.56;;;3.73;47.25
62978;BME280;49073;42.352;23.808;2024-01-30T12:32:51;96413.69;;;3.66;46.37
62978;BME280;49073;42.352;23.808;2024-01-30T12:35:52;96409.47;;;3.59;46.29
62978;BME280;49073;42.352;23.808;2024-01-30T12:38:53;96415.28;;;3.61;46.96
62978;BME280;49073;42.352;23.808;2024-01-30T12:41:53;96412.06;;;3.96;45.38
62978;BME280;49073;42.352;23.808;2024-01-30T12:44:54;96405.16;;;4.15;45.36
62978;BME280;49073;42.352;23.808;2024-01-30T12:47:55;96407.78;;;4.26;45.48
62978;BME280;49073;42.352;23.808;2024-01-30T12:50:56;96398.97;;;4.51;45.36
62978;BME280;49073;42.352;23.808;2024-01-30T12:53:57;96396.91;;;4.37;45.08
62978;BME280;49073;42.352;23.808;2024-01-30T12:56:58;96398.00;;;4.26;44.87
62978;BME280;49073;42.352;23.808;2024-01-30T12:59:59;96391.16;;;4.20;45.32
62978;BME280;49073;42.352;23.808;2024-01-30T13:02:59;96390.13;;;4.11;45.04
62978;BME280;49073;42.352;23.808;2024-01-30T13:06:00;96392.28;;;3.93;45.87
62978;BME280;49073;42.352;23.808;2024-01-30T13:09:00;96392.84;;;3.90;45.99
62978;BME280;49073;42.352;23.808;2024-01-30T13:12:01;96391.50;;;3.87;45.47
62978;BME280;49073;42.352;23.808;2024-01-30T13:15:03;96386.47;;;4.01;45.48
62978;BME280;49073;42.352;23.808;2024-01-30T13:18:06;96384.38;;;3.98;46.16
62978;BME280;49073;42.352;23.808;2024-01-30T13:21:07;96381.75;;;3.83;45.28
62978;BME280;49073;42.352;23.808;2024-01-30T13:24:08;96380.16;;;3.82;45.43
62978;BME280;49073;42.352;23.808;2024-01-30T13:27:09;96377.84;;;3.59;45.72
62978;BME280;49073;42.352;23.808;2024-01-30T13:30:10;96371.25;;;3.62;46.56
62978;BME280;49073;42.352;23.808;2024-01-30T13:33:11;96375.72;;;3.67;45.32
62978;BME280;49073;42.352;23.808;2024-01-30T13:36:12;96377.06;;;3.48;45.47
62978;BME280;49073;42.352;23.808;2024-01-30T13:39:12;96372.31;;;3.40;46.65
62978;BME280;49073;42.352;23.808;2024-01-30T13:42:13;96374.69;;;3.31;45.74
62978;BME280;49073;42.352;23.808;2024-01-30T13:45:13;96363.09;;;3.32;46.07
62978;BME280;49073;42.352;23.808;2024-01-30T13:48:18;96363.88;;;3.43;46.48
62978;BME280;49073;42.352;23.808;2024-01-30T13:51:18;96362.81;;;3.24;47.01
62978;BME280;49073;42.352;23.808;2024-01-30T13:54:19;96366.50;;;3.02;47.06
62978;BME280;49073;42.352;23.808;2024-01-30T13:57:19;96366.25;;;3.09;47.73
62978;BME280;49073;42.352;23.808;2024-01-30T14:00:20;96376.22;;;2.86;47.58
62978;BME280;49073;42.352;23.808;2024-01-30T14:03:22;96367.00;;;2.83;48.24
62978;BME280;49073;42.352;23.808;2024-01-30T14:06:23;96372.53;;;2.82;48.63
62978;BME280;49073;42.352;23.808;2024-01-30T14:09:23;96376.50;;;2.79;48.51
62978;BME280;49073;42.352;23.808;2024-01-30T14:12:24;96377.25;;;2.69;49.22
62978;BME280;49073;42.352;23.808;2024-01-30T14:15:24;96376.72;;;2.67;49.64
62978;BME280;49073;42.352;23.808;2024-01-30T14:18:25;96381.16;;;2.56;49.80
62978;BME280;49073;42.352;23.808;2024-01-30T14:21:25;96384.81;;;2.50;49.67
62978;BME280;49073;42.352;23.808;2024-01-30T14:24:26;96381.66;;;2.53;50.01
62978;BME280;49073;42.352;23.808;2024-01-30T14:27:26;96375.09;;;2.51;49.80
62978;BME280;49073;42.352;23.808;2024-01-30T14:30:27;96386.66;;;2.44;49.82
62978;BME280;49073;42.352;23.808;2024-01-30T14:33:28;96390.81;;;2.35;50.49
62978;BME280;49073;42.352;23.808;2024-01-30T14:36:28;96384.19;;;2.22;50.91
62978;BME280;49073;42.352;23.808;2024-01-30T14:39:29;96394.19;;;2.20;51.03
62978;BME280;49073;42.352;23.808;2024-01-30T14:42:29;96390.72;;;2.09;52.10
62978;BME280;49073;42.352;23.808;2024-01-30T14:45:32;96395.94;;;2.04;51.79
62978;BME280;49073;42.352;23.808;2024-01-30T14:48:33;96388.75;;;1.89;52.21
62978;BME280;49073;42.352;23.808;2024-01-30T14:51:34;96379.47;;;1.76;53.31
62978;BME280;49073;42.352;23.808;2024-01-30T14:54:34;96377.34;;;1.73;53.71
62978;BME280;49073;42.352;23.808;2024-01-30T14:57:35;96383.09;;;1.65;53.24
62978;BME280;49073;42.352;23.808;2024-01-30T15:00:35;96393.03;;;1.57;53.67
62978;BME280;49073;42.352;23.808;2024-01-30T15:03:38;96384.03;;;1.48;54.67
62978;BME280;49073;42.352;23.808;2024-01-30T15:06:40;96379.78;;;1.42;54.77
62978;BME280;49073;42.352;23.808;2024-01-30T15:09:45;96383.13;;;1.32;55.28
62978;BME280;49073;42.352;23.808;2024-01-30T15:12:46;96386.47;;;1.22;55.29
62978;BME280;49073;42.352;23.808;2024-01-30T15:15:46;96384.78;;;1.11;56.00
62978;BME280;49073;42.352;23.808;2024-01-30T15:18:47;96384.09;;;0.93;56.40
62978;BME280;49073;42.352;23.808;2024-01-30T15:21:47;96388.94;;;0.79;57.60
62978;BME280;49073;42.352;23.808;2024-01-30T15:24:48;96389.59;;;0.64;58.19
62978;BME280;49073;42.352;23.808;2024-01-30T15:27:48;96394.13;;;0.47;58.67
62978;BME280;49073;42.352;23.808;2024-01-30T15:30:49;96397.44;;;0.37;59.10
62978;BME280;49073;42.352;23.808;2024-01-30T15:33:49;96393.88;;;0.26;59.51
62978;BME280;49073;42.352;23.808;2024-01-30T15:36:50;96395.09;;;0.18;59.70
62978;BME280;49073;42.352;23.808;2024-01-30T15:39:51;96401.56;;;0.10;60.38
62978;BME280;49073;42.352;23.808;2024-01-30T15:42:51;96408.81;;;0.03;60.61
62978;BME280;49073;42.352;23.808;2024-01-30T15:45:52;96405.00;;;-0.06;61.11
62978;BME280;49073;42.352;23.808;2024-01-30T15:48:53;96411.69;;;-0.16;61.41
62978;BME280;49073;42.352;23.808;2024-01-30T15:51:53;96414.63;;;-0.12;61.73
62978;BME280;49073;42.352;23.808;2024-01-30T15:54:54;96422.16;;;-0.16;61.51
62978;BME280;49073;42.352;23.808;2024-01-30T15:57:54;96422.91;;;-0.20;61.73
62978;BME280;49073;42.352;23.808;2024-01-30T16:00:55;96421.31;;;-0.21;61.63